sensor_id;sensor_type;location;lat;lon;timestamp;pressure;altitude;pressure_sealevel;temperature;humidity
13033;BME280;6583;42.632;23.298;2024-01-15T00:00:56;71485.53;;;-146.40;68.16
13033;BME280;6583;42.632;23.298;2024-01-15T00:03:24;71491.59;;;-146.40;67.64
13033;BME280;6583;42.632;23.298;2024-01-15T00:05:50;71497.69;;;-146.40;68.14
13033;BME280;6583;42.632;23.298;2024-01-15T00:08:17;71513.88;;;-146.40;69.47
13033;BME280;6583;42.632;23.298;2024-01-15T00:10:44;71534.09;;;-146.40;69.57
13033;BME280;6583;42.632;23.298;2024-01-15T00:13:10;71526.00;;;-146.40;69.96
13033;BME280;6583;42.632;23.298;2024-01-15T00:15:37;71521.97;;;-146.40;69.75
13033;BME280;6583;42.632;23.298;2024-01-15T00:18:04;71521.97;;;-146.40;69.44
13033;BME280;6583;42.632;23.298;2024-01-15T00:20:32;71534.09;;;-146.40;69.78
13033;BME280;6583;42.632;23.298;2024-01-15T00:22:59;71519.94;;;-146.40;69.94
13033;BME280;6583;42.632;23.298;2024-01-15T00:25:26;71521.97;;;-146.40;69.75
13033;BME280;6583;42.632;23.298;2024-01-15T00:27:52;71526.00;;;-146.40;69.80
13033;BME280;6583;42.632;23.298;2024-01-15T00:30:19;71521.97;;;-146.40;70.13
13033;BME280;6583;42.632;23.298;2024-01-15T00:32:46;71521.97;;;-146.40;70.96
13033;BME280;6583;42.632;23.298;2024-01-15T00:35:13;71517.91;;;-146.40;71.08
13033;BME280;6583;42.632;23.298;2024-01-15T00:37:41;71513.88;;;-146.40;70.92
13033;BME280;6583;42.632;23.298;2024-01-15T00:40:09;71501.72;;;-146.40;70.88
13033;BME280;6583;42.632;23.298;2024-01-15T00:42:35;71534.09;;;-146.40;70.41
13033;BME280;6583;42.632;23.298;2024-01-15T00:45:03;71532.09;;;-146.40;71.13
13033;BME280;6583;42.632;23.298;2024-01-15T00:47:30;71538.16;;;-146.40;70.97
13033;BME280;6583;42.632;23.298;2024-01-15T00:49:57;71542.19;;;-146.40;71.42
13033;BME280;6583;42.632;23.298;2024-01-15T00:52:24;71540.19;;;-146.40;71.92
13033;BME280;6583;42.632;23.298;2024-01-15T00:54:52;71521.97;;;-146.40;71.48
13033;BME280;6583;42.632;23.298;2024-01-15T00:57:18;71558.38;;;-146.40;72.30
13033;BME280;6583;42.632;23.298;2024-01-15T00:59:45;71538.16;;;-146.40;72.22
13033;BME280;6583;42.632;23.298;2024-01-15T01:02:12;71548.28;;;-146.40;72.28
13033;BME280;6583;42.632;23.298;2024-01-15T01:04:39;71538.16;;;-146.40;72.32
13033;BME280;6583;42.632;23.298;2024-01-15T01:07:05;71546.25;;;-146.40;72.25
13033;BME280;6583;42.632;23.298;2024-01-15T01:09:32;71534.09;;;-146.40;72.81
13033;BME280;6583;42.632;23.298;2024-01-15T01:12:00;71546.25;;;-146.40;72.91
13033;BME280;6583;42.632;23.298;2024-01-15T01:14:28;71534.09;;;-146.40;73.14
13033;BME280;6583;42.632;23.298;2024-01-15T01:16:55;71521.97;;;-146.40;72.46
13033;BME280;6583;42.632;23.298;2024-01-15T01:19:22;71542.19;;;-146.40;72.13
13033;BME280;6583;42.632;23.298;2024-01-15T01:21:50;71524.00;;;-146.40;73.05
13033;BME280;6583;42.632;23.298;2024-01-15T01:24:17;71515.91;;;-146.40;72.42
13033;BME280;6583;42.632;23.298;2024-01-15T01:26:44;71526.00;;;-146.40;71.72
13033;BME280;6583;42.632;23.298;2024-01-15T01:29:13;71530.06;;;-146.40;72.38
13033;BME280;6583;42.632;23.298;2024-01-15T01:31:42;71515.91;;;-146.40;72.67
13033;BME280;6583;42.632;23.298;2024-01-15T01:34:09;71528.03;;;-146.40;72.34
13033;BME280;6583;42.632;23.298;2024-01-15T01:36:36;71517.91;;;-146.40;72.78
13033;BME280;6583;42.632;23.298;2024-01-15T01:39:03;71505.78;;;-146.40;72.39
13033;BME280;6583;42.632;23.298;2024-01-15T01:41:29;71532.09;;;-146.40;71.74
13033;BME280;6583;42.632;23.298;2024-01-15T01:43:56;71530.06;;;-146.40;72.71
13033;BME280;6583;42.632;23.298;2024-01-15T01:46:25;71517.91;;;-146.40;72.95
13033;BME280;6583;42.632;23.298;2024-01-15T01:48:53;71505.78;;;-146.40;72.41
13033;BME280;6583;42.632;23.298;2024-01-15T01:51:22;71503.75;;;-146.40;71.50
13033;BME280;6583;42.632;23.298;2024-01-15T01:53:51;71497.69;;;-146.40;71.49
13033;BME280;6583;42.632;23.298;2024-01-15T01:56:18;71513.88;;;-146.40;71.83
13033;BME280;6583;42.632;23.298;2024-01-15T01:58:45;71526.00;;;-146.40;71.35
13033;BME280;6583;42.632;23.298;2024-01-15T02:01:13;71532.09;;;-146.40;72.01
13033;BME280;6583;42.632;23.298;2024-01-15T02:03:43;71521.97;;;-146.40;72.68
13033;BME280;6583;42.632;23.298;2024-01-15T02:06:10;71513.88;;;-146.40;72.41
13033;BME280;6583;42.632;23.298;2024-01-15T02:08:36;71513.88;;;-146.40;72.16
13033;BME280;6583;42.632;23.298;2024-01-15T02:11:04;71513.88;;;-146.40;72.31
13033;BME280;6583;42.632;23.298;2024-01-15T02:13:30;71509.81;;;-146.40;72.92
13033;BME280;6583;42.632;23.298;2024-01-15T02:15:57;71501.72;;;-146.40;71.79
13033;BME280;6583;42.632;23.298;2024-01-15T02:18:24;71497.69;;;-146.40;72.36
13033;BME280;6583;42.632;23.298;2024-01-15T02:20:52;71499.69;;;-146.40;71.99
13033;BME280;6583;42.632;23.298;2024-01-15T02:23:20;71493.63;;;-146.40;72.18
13033;BME280;6583;42.632;23.298;2024-01-15T02:25:47;71485.53;;;-146.40;72.04
13033;BME280;6583;42.632;23.298;2024-01-15T02:28:15;71495.66;;;-146.40;71.39
13033;BME280;6583;42.632;23.298;2024-01-15T02:30:43;71491.59;;;-146.40;71.77
13033;BME280;6583;42.632;23.298;2024-01-15T02:33:11;71487.56;;;-146.40;71.90
13033;BME280;6583;42.632;23.298;2024-01-15T02:35:38;71491.59;;;-146.40;72.24
13033;BME280;6583;42.632;23.298;2024-01-15T02:38:05;71491.59;;;-146.40;72.45
13033;BME280;6583;42.632;23.298;2024-01-15T02:40:34;71491.59;;;-146.40;72.05
13033;BME280;6583;42.632;23.298;2024-01-15T02:43:01;71509.81;;;-146.40;72.86
13033;BME280;6583;42.632;23.298;2024-01-15T02:45:28;71501.72;;;-146.40;73.12
13033;BME280;6583;42.632;23.298;2024-01-15T02:47:55;71483.50;;;-146.40;72.95
13033;BME280;6583;42.632;23.298;2024-01-15T02:50:21;71481.50;;;-146.40;72.54
13033;BME280;6583;42.632;23.298;2024-01-15T02:52:48;71475.41;;;-146.40;72.68
13033;BME280;6583;42.632;23.298;2024-01-15T02:55:15;71463.28;;;-146.40;72.22
13033;BME280;6583;42.632;23.298;2024-01-15T02:57:43;71457.19;;;-146.40;72.48
13033;BME280;6583;42.632;23.298;2024-01-15T03:00:11;71461.25;;;-146.40;72.27
13033;BME280;6583;42.632;23.298;2024-01-15T03:02:39;71465.28;;;-146.40;72.53
13033;BME280;6583;42.632;23.298;2024-01-15T03:05:05;71473.41;;;-146.40;72.60
13033;BME280;6583;42.632;23.298;2024-01-15T03:07:32;71469.34;;;-146.40;72.58
13033;BME280;6583;42.632;23.298;2024-01-15T03:09:59;71473.41;;;-146.40;72.72
13033;BME280;6583;42.632;23.298;2024-01-15T03:12:25;71465.28;;;-146.40;73.14
13033;BME280;6583;42.632;23.298;2024-01-15T03:14:53;71457.19;;;-146.40;73.56
13033;BME280;6583;42.632;23.298;2024-01-15T03:17:20;71465.28;;;-146.40;73.32
13033;BME280;6583;42.632;23.298;2024-01-15T03:19:47;71459.22;;;-146.40;73.94
13033;BME280;6583;42.632;23.298;2024-01-15T03:22:15;71457.19;;;-146.40;73.69
13033;BME280;6583;42.632;23.298;2024-01-15T03:24:41;71451.13;;;-146.40;74.04
13033;BME280;6583;42.632;23.298;2024-01-15T03:27:08;71449.09;;;-146.40;73.09
13033;BME280;6583;42.632;23.298;2024-01-15T03:29:35;71441.00;;;-146.40;72.73
13033;BME280;6583;42.632;23.298;2024-01-15T03:32:03;71424.81;;;-146.40;73.50
13033;BME280;6583;42.632;23.298;2024-01-15T03:34:30;71412.69;;;-146.40;72.66
13033;BME280;6583;42.632;23.298;2024-01-15T03:36:57;71408.63;;;-146.40;73.12
13033;BME280;6583;42.632;23.298;2024-01-15T03:39:24;71404.59;;;-146.40;73.15
13033;BME280;6583;42.632;23.298;2024-01-15T03:41:51;71404.59;;;-146.40;73.63
13033;BME280;6583;42.632;23.298;2024-01-15T03:44:18;71402.56;;;-146.40;73.84
13033;BME280;6583;42.632;23.298;2024-01-15T03:46:44;71398.50;;;-146.40;73.52
13033;BME280;6583;42.632;23.298;2024-01-15T03:49:12;71398.50;;;-146.40;72.24
13033;BME280;6583;42.632;23.298;2024-01-15T03:51:39;71400.53;;;-146.40;72.96
13033;BME280;6583;42.632;23.298;2024-01-15T03:54:06;71386.38;;;-146.40;72.75
13033;BME280;6583;42.632;23.298;2024-01-15T03:56:32;71388.41;;;-146.40;72.46
13033;BME280;6583;42.632;23.298;2024-01-15T03:58:59;71376.25;;;-146.40;72.22
13033;BME280;6583;42.632;23.298;2024-01-15T04:01:26;71364.13;;;-146.40;72.72
13033;BME280;6583;42.632;23.298;2024-01-15T04:03:53;71358.03;;;-146.40;72.62
13033;BME280;6583;42.632;23.298;2024-01-15T04:06:21;71351.97;;;-146.40;71.19
13033;BME280;6583;42.632;23.298;2024-01-15T04:08:47;71347.91;;;-146.40;71.31
13033;BME280;6583;42.632;23.298;2024-01-15T04:11:14;71351.97;;;-146.40;71.07
13033;BME280;6583;42.632;23.298;2024-01-15T04:13:41;71347.91;;;-146.40;71.33
13033;BME280;6583;42.632;23.298;2024-01-15T04:16:07;71354.00;;;-146.40;71.49
13033;BME280;6583;42.632;23.298;2024-01-15T04:18:34;71351.97;;;-146.40;71.54
13033;BME280;6583;42.632;23.298;2024-01-15T04:21:04;71358.03;;;-146.40;71.14
13033;BME280;6583;42.632;23.298;2024-01-15T04:23:32;71370.19;;;-146.40;71.95
13033;BME280;6583;42.632;23.298;2024-01-15T04:25:58;71402.56;;;-146.40;72.51
13033;BME280;6583;42.632;23.298;2024-01-15T04:28:25;71398.50;;;-146.40;73.22
13033;BME280;6583;42.632;23.298;2024-01-15T04:30:52;71400.53;;;-146.40;73.33
13033;BME280;6583;42.632;23.298;2024-01-15T04:33:18;71400.53;;;-146.40;73.16
13033;BME280;6583;42.632;23.298;2024-01-15T04:35:45;71392.44;;;-146.40;73.48
13033;BME280;6583;42.632;23.298;2024-01-15T04:38:12;71404.59;;;-146.40;72.95
13033;BME280;6583;42.632;23.298;2024-01-15T04:40:40;71400.53;;;-146.40;73.22
13033;BME280;6583;42.632;23.298;2024-01-15T04:43:07;71404.59;;;-146.40;72.88
13033;BME280;6583;42.632;23.298;2024-01-15T04:45:33;71408.63;;;-146.40;73.01
13033;BME280;6583;42.632;23.298;2024-01-15T04:48:00;71416.72;;;-146.40;73.05
13033;BME280;6583;42.632;23.298;2024-01-15T04:50:27;71418.75;;;-146.40;73.62
13033;BME280;6583;42.632;23.298;2024-01-15T04:52:54;71418.75;;;-146.40;73.60
13033;BME280;6583;42.632;23.298;2024-01-15T04:55:20;71432.91;;;-146.40;73.94
13033;BME280;6583;42.632;23.298;2024-01-15T04:57:49;71441.00;;;-146.40;74.59
13033;BME280;6583;42.632;23.298;2024-01-15T05:00:16;71432.91;;;-146.40;74.98
13033;BME280;6583;42.632;23.298;2024-01-15T05:02:43;71430.91;;;-146.40;75.65
13033;BME280;6583;42.632;23.298;2024-01-15T05:05:09;71432.91;;;-146.40;76.03
13033;BME280;6583;42.632;23.298;2024-01-15T05:07:36;71434.94;;;-146.40;76.07
13033;BME280;6583;42.632;23.298;2024-01-15T05:10:03;71443.03;;;-146.40;76.08
13033;BME280;6583;42.632;23.298;2024-01-15T05:12:30;71420.78;;;-146.40;76.24
13033;BME280;6583;42.632;23.298;2024-01-15T05:14:58;71436.97;;;-146.40;76.43
13033;BME280;6583;42.632;23.298;2024-01-15T05:17:25;71451.13;;;-146.40;77.68
13033;BME280;6583;42.632;23.298;2024-01-15T05:19:51;71436.97;;;-146.40;76.87
13033;BME280;6583;42.632;23.298;2024-01-15T05:22:18;71449.09;;;-146.40;77.72
13033;BME280;6583;42.632;23.298;2024-01-15T05:24:46;71453.16;;;-146.40;77.22
13033;BME280;6583;42.632;23.298;2024-01-15T05:27:13;71465.28;;;-146.40;77.58
13033;BME280;6583;42.632;23.298;2024-01-15T05:29:39;71459.22;;;-146.40;77.75
13033;BME280;6583;42.632;23.298;2024-01-15T05:32:08;71449.09;;;-146.40;76.99
13033;BME280;6583;42.632;23.298;2024-01-15T05:34:34;71441.00;;;-146.40;76.80
13033;BME280;6583;42.632;23.298;2024-01-15T05:37:01;71436.97;;;-146.40;76.96
13033;BME280;6583;42.632;23.298;2024-01-15T05:39:31;71426.84;;;-146.40;77.06
13033;BME280;6583;42.632;23.298;2024-01-15T05:41:58;71416.72;;;-146.40;77.46
13033;BME280;6583;42.632;23.298;2024-01-15T05:44:25;71408.63;;;-146.40;76.50
13033;BME280;6583;42.632;23.298;2024-01-15T05:46:53;71404.59;;;-146.40;75.66
13033;BME280;6583;42.632;23.298;2024-01-15T05:49:21;71404.59;;;-146.40;76.14
13033;BME280;6583;42.632;23.298;2024-01-15T05:51:48;71390.41;;;-146.40;75.62
13033;BME280;6583;42.632;23.298;2024-01-15T05:54:14;71388.41;;;-146.40;75.06
13033;BME280;6583;42.632;23.298;2024-01-15T05:56:41;71392.44;;;-146.40;75.55
13033;BME280;6583;42.632;23.298;2024-01-15T05:59:08;71386.38;;;-146.40;75.82
13033;BME280;6583;42.632;23.298;2024-01-15T06:01:35;71370.19;;;-146.40;75.57
13033;BME280;6583;42.632;23.298;2024-01-15T06:04:01;71372.22;;;-146.40;74.20
13033;BME280;6583;42.632;23.298;2024-01-15T06:06:29;71364.13;;;-146.40;74.77
13033;BME280;6583;42.632;23.298;2024-01-15T06:08:56;71354.00;;;-146.40;74.77
13033;BME280;6583;42.632;23.298;2024-01-15T06:11:29;71347.91;;;-146.40;73.25
13033;BME280;6583;42.632;23.298;2024-01-15T06:13:56;71356.00;;;-146.40;72.95
13033;BME280;6583;42.632;23.298;2024-01-15T06:16:24;71354.00;;;-146.40;73.26
13033;BME280;6583;42.632;23.298;2024-01-15T06:18:50;71366.13;;;-146.40;73.72
13033;BME280;6583;42.632;23.298;2024-01-15T06:21:17;71372.22;;;-146.40;74.83
13033;BME280;6583;42.632;23.298;2024-01-15T06:23:45;71349.94;;;-146.40;74.88
13033;BME280;6583;42.632;23.298;2024-01-15T06:26:12;71335.78;;;-146.40;75.11
13033;BME280;6583;42.632;23.298;2024-01-15T06:28:39;71323.63;;;-146.40;73.45
13033;BME280;6583;42.632;23.298;2024-01-15T06:31:06;71339.81;;;-146.40;73.56
13033;BME280;6583;42.632;23.298;2024-01-15T06:33:33;71339.81;;;-146.40;73.84
13033;BME280;6583;42.632;23.298;2024-01-15T06:36:00;71331.72;;;-146.40;74.46
13033;BME280;6583;42.632;23.298;2024-01-15T06:38:26;71331.72;;;-146.40;74.52
13033;BME280;6583;42.632;23.298;2024-01-15T06:40:54;71339.81;;;-146.40;75.07
13033;BME280;6583;42.632;23.298;2024-01-15T06:43:21;71339.81;;;-146.40;76.31
13033;BME280;6583;42.632;23.298;2024-01-15T06:45:48;71335.78;;;-146.40;77.11
13033;BME280;6583;42.632;23.298;2024-01-15T06:48:14;71325.66;;;-146.40;76.94
13033;BME280;6583;42.632;23.298;2024-01-15T06:50:42;71307.44;;;-146.40;76.72
13033;BME280;6583;42.632;23.298;2024-01-15T06:53:08;71307.44;;;-146.40;76.70
13033;BME280;6583;42.632;23.298;2024-01-15T06:55:35;71289.25;;;-146.40;76.25
13033;BME280;6583;42.632;23.298;2024-01-15T06:58:03;71287.22;;;-146.40;75.54
13033;BME280;6583;42.632;23.298;2024-01-15T07:00:30;71275.06;;;-146.40;73.91
13033;BME280;6583;42.632;23.298;2024-01-15T07:02:57;71262.94;;;-146.40;73.89
13033;BME280;6583;42.632;23.298;2024-01-15T07:05:24;71264.94;;;-146.40;74.11
13033;BME280;6583;42.632;23.298;2024-01-15T07:07:50;71260.91;;;-146.40;73.81
13033;BME280;6583;42.632;23.298;2024-01-15T07:10:17;71256.84;;;-146.40;74.59
13033;BME280;6583;42.632;23.298;2024-01-15T07:12:44;71258.88;;;-146.40;73.69
13033;BME280;6583;42.632;23.298;2024-01-15T07:15:12;71244.72;;;-146.40;72.83
13033;BME280;6583;42.632;23.298;2024-01-15T07:17:39;71242.69;;;-146.40;72.27
13033;BME280;6583;42.632;23.298;2024-01-15T07:20:07;71230.56;;;-146.40;72.72
13033;BME280;6583;42.632;23.298;2024-01-15T07:22:35;71224.47;;;-146.40;73.39
13033;BME280;6583;42.632;23.298;2024-01-15T07:25:02;71206.25;;;-146.40;73.46
13033;BME280;6583;42.632;23.298;2024-01-15T07:27:30;71206.25;;;-146.40;73.33
13033;BME280;6583;42.632;23.298;2024-01-15T07:29:56;71198.16;;;-146.40;71.93
13033;BME280;6583;42.632;23.298;2024-01-15T07:32:25;71190.06;;;-146.40;71.80
13033;BME280;6583;42.632;23.298;2024-01-15T07:34:51;71190.06;;;-146.40;72.30
13033;BME280;6583;42.632;23.298;2024-01-15T07:37:18;71186.03;;;-146.40;71.99
13033;BME280;6583;42.632;23.298;2024-01-15T07:39:45;71173.88;;;-146.40;71.61
13033;BME280;6583;42.632;23.298;2024-01-15T07:42:11;71173.88;;;-146.40;71.33
13033;BME280;6583;42.632;23.298;2024-01-15T07:44:38;71171.88;;;-146.40;70.81
13033;BME280;6583;42.632;23.298;2024-01-15T07:47:05;71169.84;;;-146.40;70.63
13033;BME280;6583;42.632;23.298;2024-01-15T07:49:35;71175.91;;;-146.40;70.75
13033;BME280;6583;42.632;23.298;2024-01-15T07:52:02;71161.75;;;-146.40;70.23
13033;BME280;6583;42.632;23.298;2024-01-15T07:54:30;71177.94;;;-146.40;69.83
13033;BME280;6583;42.632;23.298;2024-01-15T07:56:58;71149.59;;;-146.40;69.86
13033;BME280;6583;42.632;23.298;2024-01-15T07:59:25;71153.66;;;-146.40;69.76
13033;BME280;6583;42.632;23.298;2024-01-15T08:01:52;71133.41;;;-146.40;69.30
13033;BME280;6583;42.632;23.298;2024-01-15T08:04:19;71115.19;;;-146.40;68.88
13033;BME280;6583;42.632;23.298;2024-01-15T08:06:48;71107.13;;;-146.40;67.13
13033;BME280;6583;42.632;23.298;2024-01-15T08:09:15;71105.09;;;-146.40;67.52
13033;BME280;6583;42.632;23.298;2024-01-15T08:11:42;71084.84;;;-146.40;67.55
13033;BME280;6583;42.632;23.298;2024-01-15T08:14:09;71082.81;;;-146.40;67.54
13033;BME280;6583;42.632;23.298;2024-01-15T08:16:37;71084.84;;;-146.40;65.04
13033;BME280;6583;42.632;23.298;2024-01-15T08:19:04;71072.72;;;-146.40;64.58
13033;BME280;6583;42.632;23.298;2024-01-15T08:21:31;71078.78;;;-146.40;63.73
13033;BME280;6583;42.632;23.298;2024-01-15T08:24:00;71094.97;;;-146.40;66.23
13033;BME280;6583;42.632;23.298;2024-01-15T08:26:29;71097.00;;;-146.40;66.00
13033;BME280;6583;42.632;23.298;2024-01-15T08:28:57;71113.19;;;-146.40;66.76
13033;BME280;6583;42.632;23.298;2024-01-15T08:31:24;71109.13;;;-146.40;66.90
13033;BME280;6583;42.632;23.298;2024-01-15T08:33:51;71105.09;;;-146.40;65.52
13033;BME280;6583;42.632;23.298;2024-01-15T08:36:17;71111.16;;;-146.40;65.83
13033;BME280;6583;42.632;23.298;2024-01-15T08:38:44;71109.13;;;-146.40;64.90
13033;BME280;6583;42.632;23.298;2024-01-15T08:41:12;71099.00;;;-146.40;64.65
13033;BME280;6583;42.632;23.298;2024-01-15T08:43:39;71123.28;;;-146.40;64.50
13033;BME280;6583;42.632;23.298;2024-01-15T08:46:06;71117.22;;;-146.40;65.80
13033;BME280;6583;42.632;23.298;2024-01-15T08:48:33;71113.19;;;-146.40;65.88
13033;BME280;6583;42.632;23.298;2024-01-15T08:51:00;71111.16;;;-146.40;65.41
13033;BME280;6583;42.632;23.298;2024-01-15T08:53:26;71113.19;;;-146.40;66.31
13033;BME280;6583;42.632;23.298;2024-01-15T08:55:53;71111.16;;;-146.40;67.69
13033;BME280;6583;42.632;23.298;2024-01-15T08:58:23;71115.19;;;-146.40;67.70
13033;BME280;6583;42.632;23.298;2024-01-15T09:00:49;71109.13;;;-146.40;68.56
13033;BME280;6583;42.632;23.298;2024-01-15T09:03:17;71084.84;;;-146.40;68.60
13033;BME280;6583;42.632;23.298;2024-01-15T09:05:43;71078.78;;;-146.40;68.85
13033;BME280;6583;42.632;23.298;2024-01-15T09:08:09;71070.69;;;-146.40;68.28
13033;BME280;6583;42.632;23.298;2024-01-15T09:10:36;71056.53;;;-146.40;67.92
13033;BME280;6583;42.632;23.298;2024-01-15T09:13:03;71044.38;;;-146.40;67.58
13033;BME280;6583;42.632;23.298;2024-01-15T09:15:31;71026.16;;;-146.40;66.78
13033;BME280;6583;42.632;23.298;2024-01-15T09:17:59;71007.97;;;-146.40;67.04
13033;BME280;6583;42.632;23.298;2024-01-15T09:20:27;70999.88;;;-146.40;65.96
13033;BME280;6583;42.632;23.298;2024-01-15T09:22:54;70983.69;;;-146.40;65.71
13033;BME280;6583;42.632;23.298;2024-01-15T09:25:21;70959.41;;;-146.40;63.26
13033;BME280;6583;42.632;23.298;2024-01-15T09:27:47;70959.41;;;-146.40;63.51
13033;BME280;6583;42.632;23.298;2024-01-15T09:30:14;70951.31;;;-146.40;61.23
13033;BME280;6583;42.632;23.298;2024-01-15T09:32:43;70943.22;;;-146.40;59.24
13033;BME280;6583;42.632;23.298;2024-01-15T09:35:09;70914.88;;;-146.40;59.11
13033;BME280;6583;42.632;23.298;2024-01-15T09:37:36;70906.78;;;-146.40;58.81
13033;BME280;6583;42.632;23.298;2024-01-15T09:40:05;70904.75;;;-146.40;59.57
13033;BME280;6583;42.632;23.298;2024-01-15T09:42:34;70880.47;;;-146.40;57.66
13033;BME280;6583;42.632;23.298;2024-01-15T09:45:02;70882.50;;;-146.40;57.90
13033;BME280;6583;42.632;23.298;2024-01-15T09:47:30;70854.19;;;-146.40;57.59
13033;BME280;6583;42.632;23.298;2024-01-15T09:49:58;70850.13;;;-146.40;55.87
13033;BME280;6583;42.632;23.298;2024-01-15T09:52:25;70866.31;;;-146.40;57.44
13033;BME280;6583;42.632;23.298;2024-01-15T09:54:52;70874.41;;;-146.40;55.52
13033;BME280;6583;42.632;23.298;2024-01-15T09:57:19;70880.47;;;-146.40;56.78
13033;BME280;6583;42.632;23.298;2024-01-15T09:59:47;70864.28;;;-146.40;56.56
13033;BME280;6583;42.632;23.298;2024-01-15T10:02:14;70858.22;;;-146.40;55.92
13033;BME280;6583;42.632;23.298;2024-01-15T10:04:44;70866.31;;;-146.40;56.13
13033;BME280;6583;42.632;23.298;2024-01-15T10:07:15;70842.03;;;-146.40;57.63
13033;BME280;6583;42.632;23.298;2024-01-15T10:09:42;70848.09;;;-146.40;58.50
13033;BME280;6583;42.632;23.298;2024-01-15T10:12:10;70823.81;;;-146.40;58.82
13033;BME280;6583;42.632;23.298;2024-01-15T10:14:37;70825.84;;;-146.40;58.08
13033;BME280;6583;42.632;23.298;2024-01-15T10:17:12;70821.81;;;-146.40;58.47
13033;BME280;6583;42.632;23.298;2024-01-15T10:19:39;70817.75;;;-146.40;59.10
13033;BME280;6583;42.632;23.298;2024-01-15T10:22:07;70801.56;;;-146.40;58.78
13033;BME280;6583;42.632;23.298;2024-01-15T10:24:36;70805.63;;;-146.40;59.77
13033;BME280;6583;42.632;23.298;2024-01-15T10:27:07;70797.53;;;-146.40;58.54
13033;BME280;6583;42.632;23.298;2024-01-15T10:29:34;70785.38;;;-146.40;59.67
13033;BME280;6583;42.632;23.298;2024-01-15T10:32:01;70763.13;;;-146.40;59.27
13033;BME280;6583;42.632;23.298;2024-01-15T10:34:28;70757.06;;;-146.40;57.89
13033;BME280;6583;42.632;23.298;2024-01-15T10:36:54;70777.28;;;-146.40;57.80
13033;BME280;6583;42.632;23.298;2024-01-15T10:39:21;70753.00;;;-146.40;58.88
13033;BME280;6583;42.632;23.298;2024-01-15T10:41:50;70740.88;;;-146.40;58.28
13033;BME280;6583;42.632;23.298;2024-01-15T10:44:17;70740.88;;;-146.40;57.70
13033;BME280;6583;42.632;23.298;2024-01-15T10:46:45;70726.69;;;-146.40;56.70
13033;BME280;6583;42.632;23.298;2024-01-15T10:49:12;70714.56;;;-146.40;56.61
13033;BME280;6583;42.632;23.298;2024-01-15T10:51:39;70692.31;;;-146.40;57.05
13033;BME280;6583;42.632;23.298;2024-01-15T10:54:09;70684.22;;;-146.40;57.63
13033;BME280;6583;42.632;23.298;2024-01-15T10:56:37;70659.94;;;-146.40;57.14
13033;BME280;6583;42.632;23.298;2024-01-15T10:59:05;70668.03;;;-146.40;57.41
13033;BME280;6583;42.632;23.298;2024-01-15T11:01:33;70649.81;;;-146.40;57.09
13033;BME280;6583;42.632;23.298;2024-01-15T11:04:00;70627.56;;;-146.40;56.07
13033;BME280;6583;42.632;23.298;2024-01-15T11:06:28;70607.31;;;-146.40;56.46
13033;BME280;6583;42.632;23.298;2024-01-15T11:08:55;70631.59;;;-146.40;57.30
13033;BME280;6583;42.632;23.298;2024-01-15T11:11:22;70619.47;;;-146.40;55.89
13033;BME280;6583;42.632;23.298;2024-01-15T11:13:48;70619.47;;;-146.40;55.48
13033;BME280;6583;42.632;23.298;2024-01-15T11:16:18;70631.59;;;-146.40;54.73
13033;BME280;6583;42.632;23.298;2024-01-15T11:19:02;70631.59;;;-146.40;56.41
13033;BME280;6583;42.632;23.298;2024-01-15T11:21:31;70631.59;;;-146.40;56.24
13033;BME280;6583;42.632;23.298;2024-01-15T11:23:59;70623.50;;;-146.40;55.99
13033;BME280;6583;42.632;23.298;2024-01-15T11:26:34;70603.28;;;-146.40;55.38
13033;BME280;6583;42.632;23.298;2024-01-15T11:29:05;70603.28;;;-146.40;55.50
13033;BME280;6583;42.632;23.298;2024-01-15T11:32:05;70572.94;;;-146.40;56.86
13033;BME280;6583;42.632;23.298;2024-01-15T11:34:52;70560.78;;;-146.40;54.69
13033;BME280;6583;42.632;23.298;2024-01-15T11:37:19;70566.88;;;-146.40;55.47
13033;BME280;6583;42.632;23.298;2024-01-15T11:39:46;70540.56;;;-146.40;55.43
13033;BME280;6583;42.632;23.298;2024-01-15T11:42:13;70542.59;;;-146.40;54.88
13033;BME280;6583;42.632;23.298;2024-01-15T11:44:41;70530.44;;;-146.40;54.47
13033;BME280;6583;42.632;23.298;2024-01-15T11:47:10;70524.38;;;-146.40;54.04
13033;BME280;6583;42.632;23.298;2024-01-15T11:49:58;70502.13;;;-146.40;54.50
13033;BME280;6583;42.632;23.298;2024-01-15T11:52:28;70500.09;;;-146.40;55.20
13033;BME280;6583;42.632;23.298;2024-01-15T11:55:02;70504.16;;;-146.40;53.87
13033;BME280;6583;42.632;23.298;2024-01-15T11:57:40;70487.97;;;-146.40;54.00
13033;BME280;6583;42.632;23.298;2024-01-15T12:00:09;70489.97;;;-146.40;53.53
13033;BME280;6583;42.632;23.298;2024-01-15T12:02:39;70473.78;;;-146.40;54.24
13033;BME280;6583;42.632;23.298;2024-01-15T12:05:07;70457.59;;;-146.40;54.60
13033;BME280;6583;42.632;23.298;2024-01-15T12:07:34;70457.59;;;-146.40;56.01
13033;BME280;6583;42.632;23.298;2024-01-15T12:10:01;70429.28;;;-146.40;55.58
13033;BME280;6583;42.632;23.298;2024-01-15T12:12:35;70417.16;;;-146.40;55.38
13033;BME280;6583;42.632;23.298;2024-01-15T12:15:04;70441.44;;;-146.40;53.90
13033;BME280;6583;42.632;23.298;2024-01-15T12:17:31;70435.34;;;-146.40;54.09
13033;BME280;6583;42.632;23.298;2024-01-15T12:19:59;70431.31;;;-146.40;54.18
13033;BME280;6583;42.632;23.298;2024-01-15T12:22:26;70453.56;;;-146.40;53.92
13033;BME280;6583;42.632;23.298;2024-01-15T12:24:54;70441.44;;;-146.40;54.62
13033;BME280;6583;42.632;23.298;2024-01-15T12:27:21;70437.38;;;-146.40;55.09
13033;BME280;6583;42.632;23.298;2024-01-15T12:29:48;70431.31;;;-146.40;54.12
13033;BME280;6583;42.632;23.298;2024-01-15T12:32:15;70433.34;;;-146.40;54.18
13033;BME280;6583;42.632;23.298;2024-01-15T12:34:43;70417.16;;;-146.40;54.75
13033;BME280;6583;42.632;23.298;2024-01-15T12:37:11;70417.16;;;-146.40;55.23
13033;BME280;6583;42.632;23.298;2024-01-15T12:39:38;70405.00;;;-146.40;55.23
13033;BME280;6583;42.632;23.298;2024-01-15T12:42:05;70386.81;;;-146.40;54.95